Time;durP1;ratioP1;P1;durP2;ratioP2;P2;SDS_P1;SDS_P2;PMS_P1;PMS_P2;Temp;Humidity;BMP_temperature;BMP_pressure;BME280_temperature;BME280_humidity;BME280_pressure;Samples;Min_cycle;Max_cycle;Signal;HPM_P1;HPM_P2
2022/12/13 00:01:29;;;;;;;11.05;6.63;;;;;;;;;;5027175;28;20084;-73
2022/12/13 00:03:58;;;;;;;10.40;6.85;;;;;;;;;;5015626;28;20531;-74
2022/12/13 00:06:26;;;;;;;12.55;6.30;;;;;;;;;;5010787;28;20045;-73
2022/12/13 00:08:53;;;;;;;11.30;5.97;;;;;;;;;;5011839;28;20124;-74
2022/12/13 00:11:21;;;;;;;8.90;6.22;;;;;;;;;;5020060;28;20258;-74
2022/12/13 00:13:48;;;;;;;10.20;6.30;;;;;;;;;;5011748;28;20041;-74
2022/12/13 00:16:17;;;;;;;9.00;6.43;;;;;;;;;;5011363;28;20597;-74
2022/12/13 00:18:54;;;;;;;10.23;6.78;;;;;;;;;;5017908;28;20554;-74
2022/12/13 00:21:22;;;;;;;10.13;5.75;;;;;;;;;;5026623;28;20573;-74
2022/12/13 00:23:50;;;;;;;8.70;5.55;;;;;;;;;;5008882;28;20391;-75
2022/12/13 00:26:22;;;;;;;9.77;7.28;;;;;;;;;;5026802;28;20213;-74
2022/12/13 00:28:50;;;;;;;;;;;;;;;;;;5006306;28;20541;-74
2022/12/13 00:31:18;;;;;;;10.80;6.82;;;;;;;;;;5018960;28;19931;-73
2022/12/13 00:34:05;;;;;;;9.82;7.97;;;;;;;;;;5022114;28;20099;-74
2022/12/13 00:36:33;;;;;;;6.63;5.25;;;;;;;;;;5007816;28;20344;-74
2022/12/13 00:39:00;;;;;;;9.02;5.43;;;;;;;;;;4997036;28;20045;-74
2022/12/13 00:41:32;;;;;;;11.48;8.20;;;;;;;;;;5013257;28;20565;-71
2022/12/13 00:44:00;;;;;;;11.32;6.80;;;;;;;;;;5018146;28;20049;-72
2022/12/13 00:46:28;;;;;;;9.35;6.55;;;;;;;;;;5021591;28;20034;-73
2022/12/13 00:48:57;;;;;;;11.43;6.93;;;;;;;;;;5018337;28;20041;-73
2022/12/13 00:51:25;;;;;;;11.95;6.18;;;;;;;;;;5006045;28;20100;-73
2022/12/13 00:53:53;;;;;;;11.65;6.90;;;;;;;;;;5011736;28;20042;-72
2022/12/13 00:56:22;;;;;;;14.93;7.20;;;;;;;;;;5017618;28;20061;-74
2022/12/13 00:58:50;;;;;;;9.88;6.32;;;;;;;;;;5004595;28;20037;-75
2022/12/13 01:01:20;;;;;;;7.88;5.68;;;;;;;;;;5019275;28;20049;-74
2022/12/13 01:03:48;;;;;;;9.23;5.03;;;;;;;;;;5011923;28;20352;-74
2022/12/13 01:06:27;;;;;;;9.27;5.30;;;;;;;;;;5013274;28;20069;-74
2022/12/13 01:08:55;;;;;;;7.32;5.20;;;;;;;;;;5025092;28;20140;-75
2022/12/13 01:11:22;;;;;;;8.68;5.82;;;;;;;;;;5020421;28;20265;-75
2022/12/13 01:13:49;;;;;;;10.55;6.30;;;;;;;;;;5017311;28;20052;-72
2022/12/13 01:16:17;;;;;;;10.43;5.65;;;;;;;;;;5021394;28;20044;-74
2022/12/13 01:18:47;;;;;;;14.68;6.75;;;;;;;;;;5020916;28;20067;-74
2022/12/13 01:21:16;;;;;;;10.13;6.45;;;;;;;;;;5009497;28;20042;-73
2022/12/13 01:23:43;;;;;;;14.40;7.47;;;;;;;;;;5025573;28;20052;-74
2022/12/13 01:26:12;;;;;;;8.32;5.05;;;;;;;;;;5023835;28;20067;-74
2022/12/13 01:28:40;;;;;;;12.32;7.28;;;;;;;;;;5018697;28;20045;-75
2022/12/13 01:31:08;;;;;;;14.25;6.15;;;;;;;;;;5020395;28;20045;-74
2022/12/13 01:33:36;;;;;;;10.00;5.90;;;;;;;;;;5023553;28;20148;-74
2022/12/13 01:36:05;;;;;;;8.38;5.45;;;;;;;;;;5027442;28;20045;-73
2022/12/13 01:38:32;;;;;;;10.70;9.00;;;;;;;;;;5020895;28;20397;-75
2022/12/13 01:41:04;;;;;;;9.15;5.90;;;;;;;;;;5028714;28;20444;-74
2022/12/13 01:43:45;;;;;;;14.38;7.22;;;;;;;;;;5010082;28;20132;-74
2022/12/13 01:46:13;;;;;;;10.40;5.93;;;;;;;;;;5019904;28;20125;-73
2022/12/13 01:48:55;;;;;;;19.30;8.30;;;;;;;;;;5028389;28;20042;-75
2022/12/13 01:51:29;;;;;;;10.57;5.65;;;;;;;;;;5011033;28;20045;-74
2022/12/13 01:53:57;;;;;;;12.35;6.80;;;;;;;;;;5019089;28;20100;-75
2022/12/13 01:56:29;;;;;;;9.45;5.97;;;;;;;;;;5027467;28;20527;-74
2022/12/13 01:58:57;;;;;;;;;;;;;;;;;;5027951;28;20501;-74
2022/12/13 02:01:24;;;;;;;9.20;6.93;;;;;;;;;;5016777;28;19933;-75
2022/12/13 02:03:52;;;;;;;9.15;5.70;;;;;;;;;;5027550;28;20041;-74
2022/12/13 02:06:22;;;;;;;7.93;6.13;;;;;;;;;;5021320;28;20486;-73
2022/12/13 02:08:50;;;;;;;11.35;6.75;;;;;;;;;;5024476;28;20501;-75
2022/12/13 02:11:17;;;;;;;6.95;4.50;;;;;;;;;;5026119;28;20509;-73
2022/12/13 02:13:44;;;;;;;13.02;6.60;;;;;;;;;;5000696;28;20053;-75
2022/12/13 02:16:31;;;;;;;12.05;7.07;;;;;;;;;;5022254;28;20041;-74
2022/12/13 02:19:04;;;;;;;7.95;5.65;;;;;;;;;;5015177;28;20054;-75
2022/12/13 02:21:43;;;;;;;8.70;5.15;;;;;;;;;;5049279;23;20045;-75
2022/12/13 02:24:23;;;;;;;11.27;6.40;;;;;;;;;;5027158;28;20087;-75
2022/12/13 02:27:13;;;;;;;7.50;5.40;;;;;;;;;;5035364;28;20627;-76
2022/12/13 02:29:47;;;;;;;9.05;6.20;;;;;;;;;;5028049;28;20099;-76
2022/12/13 02:32:16;;;;;;;12.60;7.57;;;;;;;;;;5025657;28;20075;-75
2022/12/13 02:34:51;;;;;;;15.27;13.82;;;;;;;;;;5040061;28;20040;-75
2022/12/13 02:37:51;;;;;;;10.88;7.88;;;;;;;;;;5027265;28;20037;-74
2022/12/13 02:40:22;;;;;;;10.93;6.95;;;;;;;;;;5009164;28;20302;-75
2022/12/13 02:42:52;;;;;;;11.88;6.63;;;;;;;;;;5029925;28;20471;-75
2022/12/13 02:45:27;;;;;;;9.23;6.53;;;;;;;;;;5020336;28;20049;-75
2022/12/13 02:47:55;;;;;;;11.23;7.13;;;;;;;;;;5029373;28;20037;-75
2022/12/13 02:50:24;;;;;;;8.45;5.88;;;;;;;;;;5027891;28;20386;-74
2022/12/13 02:52:51;;;;;;;12.75;9.20;;;;;;;;;;5029206;28;20037;-75
2022/12/13 02:55:19;;;;;;;7.07;5.00;;;;;;;;;;5046294;28;20041;-76
2022/12/13 02:57:52;;;;;;;8.38;5.97;;;;;;;;;;5013902;28;20140;-75
2022/12/13 03:00:22;;;;;;;8.13;5.40;;;;;;;;;;5042908;28;20122;-75
2022/12/13 03:02:53;;;;;;;8.10;4.60;;;;;;;;;;5022793;28;20136;-75
2022/12/13 03:08:34;;;;;;;9.45;5.25;;;;;;;;;;5035989;28;20050;-76
2022/12/13 03:11:06;;;;;;;9.80;6.15;;;;;;;;;;5036848;28;20036;-75
2022/12/13 03:13:45;;;;;;;7.28;4.78;;;;;;;;;;5044773;28;20041;-75
2022/12/13 03:16:21;;;;;;;7.43;5.85;;;;;;;;;;5041733;28;20068;-75
2022/12/13 03:18:51;;;;;;;9.75;5.80;;;;;;;;;;5023762;28;20132;-76
2022/12/13 03:21:21;;;;;;;10.63;6.32;;;;;;;;;;5041327;28;20073;-75
2022/12/13 03:23:49;;;;;;;14.85;7.60;;;;;;;;;;5026104;28;20045;-76
2022/12/13 03:26:18;;;;;;;12.65;8.93;;;;;;;;;;5037445;28;20046;-76
2022/12/13 03:28:45;;;;;;;8.40;5.72;;;;;;;;;;5024122;28;20500;-76
2022/12/13 03:31:12;;;;;;;9.27;6.25;;;;;;;;;;5008502;28;20505;-75
2022/12/13 03:33:40;;;;;;;9.63;6.53;;;;;;;;;;5041776;28;20051;-75
2022/12/13 03:36:07;;;;;;;10.10;5.70;;;;;;;;;;5046658;28;20408;-75
2022/12/13 03:38:35;;;;;;;7.43;6.32;;;;;;;;;;5011660;28;20048;-75
2022/12/13 03:41:05;;;;;;;8.57;5.93;;;;;;;;;;5027572;28;20057;-75
2022/12/13 03:43:32;;;;;;;8.25;7.07;;;;;;;;;;5023572;28;20033;-75
2022/12/13 03:46:00;;;;;;;5.85;5.30;;;;;;;;;;5041918;28;20067;-75
2022/12/13 03:48:27;;;;;;;9.48;8.55;;;;;;;;;;5041228;28;20592;-75
2022/12/13 03:50:55;;;;;;;8.38;5.75;;;;;;;;;;5014088;28;20044;-76
2022/12/13 03:53:24;;;;;;;8.27;6.30;;;;;;;;;;5044957;28;20049;-75
2022/12/13 03:56:00;;;;;;;8.10;6.32;;;;;;;;;;5009159;28;20052;-75
2022/12/13 03:58:28;;;;;;;7.95;4.75;;;;;;;;;;5041830;28;20045;-75
2022/12/13 04:01:10;;;;;;;7.80;5.10;;;;;;;;;;5041110;28;20504;-75
2022/12/13 04:03:38;;;;;;;6.25;4.50;;;;;;;;;;5039848;28;20056;-75
2022/12/13 04:06:07;;;;;;;10.02;9.10;;;;;;;;;;5041566;28;20570;-75
2022/12/13 04:08:34;;;;;;;7.80;4.88;;;;;;;;;;5043793;28;20047;-75
2022/12/13 04:13:31;;;;;;;8.55;5.38;;;;;;;;;;5009012;28;20128;-76
2022/12/13 04:13:50;;;;;;;46.70;42.55;;;;;;;;;;5014284;28;20140;-76
2022/12/13 04:16:18;;;;;;;18.10;16.70;;;;;;;;;;5038598;28;20052;-76
2022/12/13 04:18:45;;;;;;;26.98;25.00;;;;;;;;;;5023106;28;20443;-76
2022/12/13 04:21:13;;;;;;;12.75;8.98;;;;;;;;;;5042646;28;20544;-76
2022/12/13 04:23:40;;;;;;;9.38;6.30;;;;;;;;;;5002290;28;20490;-76
2022/12/13 04:26:09;;;;;;;9.35;5.35;;;;;;;;;;5015738;28;20041;-75
2022/12/13 04:28:36;;;;;;;8.82;6.07;;;;;;;;;;5006706;28;20049;-76
2022/12/13 04:31:03;;;;;;;11.13;10.07;;;;;;;;;;4990153;28;20052;-75
2022/12/13 04:33:32;;;;;;;17.30;16.00;;;;;;;;;;5028781;28;20048;-75
2022/12/13 04:35:59;;;;;;;7.28;5.05;;;;;;;;;;5032931;28;20424;-75
2022/12/13 04:38:27;;;;;;;6.93;4.43;;;;;;;;;;5042993;28;20045;-75
2022/12/13 04:41:04;;;;;;;11.60;10.30;;;;;;;;;;5021572;28;20041;-75
2022/12/13 04:43:31;;;;;;;10.43;5.60;;;;;;;;;;5022574;28;20045;-75
2022/12/13 04:45:58;;;;;;;11.35;6.40;;;;;;;;;;5038288;28;20045;-75
2022/12/13 04:48:26;;;;;;;9.30;6.93;;;;;;;;;;5040934;28;20052;-75
2022/12/13 04:50:59;;;;;;;12.20;5.60;;;;;;;;;;5012218;28;20052;-76
2022/12/13 04:53:30;;;;;;;9.65;5.85;;;;;;;;;;5020974;28;20051;-75
2022/12/13 04:55:58;;;;;;;15.85;7.55;;;;;;;;;;5022990;28;20053;-75
2022/12/13 04:58:27;;;;;;;8.25;5.50;;;;;;;;;;5022300;28;20037;-75
2022/12/13 05:00:54;;;;;;;10.55;6.53;;;;;;;;;;5031873;28;20052;-76
2022/12/13 05:03:22;;;;;;;7.28;5.55;;;;;;;;;;5013803;28;20431;-75
2022/12/13 05:05:50;;;;;;;9.43;7.47;;;;;;;;;;5018316;28;20098;-75
2022/12/13 05:08:17;;;;;;;8.90;5.88;;;;;;;;;;5033659;28;20048;-75
2022/12/13 05:10:45;;;;;;;8.23;7.40;;;;;;;;;;5020923;28;20339;-75
2022/12/13 05:13:12;;;;;;;10.45;6.50;;;;;;;;;;5020588;28;20385;-75
2022/12/13 05:15:40;;;;;;;7.90;5.05;;;;;;;;;;5034617;28;20128;-75
2022/12/13 05:18:07;;;;;;;8.68;6.70;;;;;;;;;;5015236;28;20509;-75
2022/12/13 05:20:37;;;;;;;6.45;4.63;;;;;;;;;;5035806;28;20037;-75
2022/12/13 05:23:05;;;;;;;5.57;3.60;;;;;;;;;;5016463;28;20272;-75
2022/12/13 05:25:33;;;;;;;8.07;7.28;;;;;;;;;;5021107;28;20037;-76
2022/12/13 05:28:00;;;;;;;7.85;6.35;;;;;;;;;;5044783;28;20041;-75
2022/12/13 05:30:47;;;;;;;15.02;10.88;;;;;;;;;;5016022;28;21155;-76
2022/12/13 05:33:15;;;;;;;6.75;4.53;;;;;;;;;;5005114;28;20060;-75
2022/12/13 05:35:42;;;;;;;7.32;4.65;;;;;;;;;;5027783;28;20049;-76
2022/12/13 05:38:09;;;;;;;8.38;5.22;;;;;;;;;;5004538;28;20056;-76
2022/12/13 05:40:37;;;;;;;13.65;12.55;;;;;;;;;;5023886;28;20045;-76
2022/12/13 05:43:05;;;;;;;13.13;8.10;;;;;;;;;;5002124;28;20055;-76
2022/12/13 05:45:48;;;;;;;16.80;15.35;;;;;;;;;;5036239;28;20045;-76
2022/12/13 05:48:16;;;;;;;10.10;6.80;;;;;;;;;;5036792;28;20404;-76
2022/12/13 05:50:52;;;;;;;8.90;5.30;;;;;;;;;;5023970;28;20037;-76
2022/12/13 05:53:37;;;;;;;15.23;7.75;;;;;;;;;;5021074;28;20102;-75
2022/12/13 05:56:06;;;;;;;12.90;10.30;;;;;;;;;;5020187;28;20497;-75
2022/12/13 05:58:33;;;;;;;13.35;9.27;;;;;;;;;;5023873;28;20052;-76
2022/12/13 06:01:20;;;;;;;15.43;7.13;;;;;;;;;;5017156;28;20049;-75
2022/12/13 06:03:47;;;;;;;27.20;21.60;;;;;;;;;;5017181;28;20551;-76
2022/12/13 06:06:17;;;;;;;16.27;14.38;;;;;;;;;;5020699;28;20038;-74
2022/12/13 06:08:44;;;;;;;13.15;7.28;;;;;;;;;;5043089;28;20029;-76
2022/12/13 06:11:12;;;;;;;12.40;7.35;;;;;;;;;;5017661;28;20049;-75
2022/12/13 06:13:58;;;;;;;15.10;13.80;;;;;;;;;;5013762;28;20041;-75
2022/12/13 06:16:27;;;;;;;17.50;15.70;;;;;;;;;;5030149;28;20048;-75
2022/12/13 06:18:55;;;;;;;12.20;7.13;;;;;;;;;;5011647;28;20042;-75
2022/12/13 06:21:33;;;;;;;14.23;10.98;;;;;;;;;;5031850;28;20059;-76
2022/12/13 06:24:10;;;;;;;10.63;7.45;;;;;;;;;;5010335;28;20049;-76
2022/12/13 06:26:37;;;;;;;9.70;6.97;;;;;;;;;;4998446;28;20045;-76
2022/12/13 06:29:05;;;;;;;11.68;7.95;;;;;;;;;;5015983;28;20047;-75
2022/12/13 06:31:32;;;;;;;6.28;5.53;;;;;;;;;;5032379;28;20374;-76
2022/12/13 06:34:03;;;;;;;9.43;5.85;;;;;;;;;;5016700;28;20056;-76
2022/12/13 06:36:41;;;;;;;11.45;5.30;;;;;;;;;;5031036;28;20052;-77
2022/12/13 06:39:09;;;;;;;15.45;6.63;;;;;;;;;;5039191;28;20493;-76
2022/12/13 06:41:36;;;;;;;7.43;5.38;;;;;;;;;;5007215;28;20045;-74
2022/12/13 06:44:04;;;;;;;19.17;6.43;;;;;;;;;;5042298;28;20111;-76
2022/12/13 06:46:32;;;;;;;18.92;17.33;;;;;;;;;;5031301;28;20041;-75
2022/12/13 06:49:00;;;;;;;26.88;24.05;;;;;;;;;;5016553;28;20060;-76
2022/12/13 06:51:27;;;;;;;11.07;6.72;;;;;;;;;;5034599;28;20049;-76
2022/12/13 06:54:01;;;;;;;11.27;10.13;;;;;;;;;;5007359;28;20124;-75
2022/12/13 06:56:31;;;;;;;10.30;9.13;;;;;;;;;;5036070;28;20049;-75
2022/12/13 06:58:59;;;;;;;11.50;6.75;;;;;;;;;;5028672;28;20037;-75
2022/12/13 07:01:29;;;;;;;11.15;6.97;;;;;;;;;;5023376;28;20523;-76
2022/12/13 07:04:08;;;;;;;8.63;6.57;;;;;;;;;;5024161;28;20199;-76
2022/12/13 07:06:56;;;;;;;11.40;7.28;;;;;;;;;;5014147;28;20037;-77
2022/12/13 07:09:30;;;;;;;11.18;6.10;;;;;;;;;;5014148;28;20044;-78
2022/12/13 07:11:58;;;;;;;21.50;19.80;;;;;;;;;;5025604;28;20133;-75
2022/12/13 07:14:27;;;;;;;8.52;6.88;;;;;;;;;;5019361;28;20194;-76
2022/12/13 07:16:54;;;;;;;10.55;5.25;;;;;;;;;;5030764;28;20037;-77
2022/12/13 07:19:32;;;;;;;6.90;5.05;;;;;;;;;;5028511;28;20053;-77
2022/12/13 07:22:04;;;;;;;8.65;5.55;;;;;;;;;;5036669;28;20121;-76
2022/12/13 07:24:33;;;;;;;10.65;6.45;;;;;;;;;;5018499;28;20036;-76
2022/12/13 07:27:00;;;;;;;13.52;10.38;;;;;;;;;;5037978;28;20562;-77
2022/12/13 07:29:28;;;;;;;10.70;9.38;;;;;;;;;;5038155;28;20118;-78
2022/12/13 07:31:56;;;;;;;13.13;10.15;;;;;;;;;;5023725;28;20527;-77
2022/12/13 07:34:28;;;;;;;10.18;9.05;;;;;;;;;;5034373;28;20129;-78
2022/12/13 07:36:56;;;;;;;10.95;7.05;;;;;;;;;;5032380;28;20045;-78
2022/12/13 07:39:27;;;;;;;13.65;7.60;;;;;;;;;;5024602;28;20053;-76
2022/12/13 07:41:55;;;;;;;12.18;7.20;;;;;;;;;;5022805;28;20492;-77
2022/12/13 07:44:23;;;;;;;9.80;6.80;;;;;;;;;;5028003;28;20041;-76
2022/12/13 07:46:54;;;;;;;20.92;17.83;;;;;;;;;;5045228;28;20040;-77
2022/12/13 07:49:21;;;;;;;7.90;5.63;;;;;;;;;;5048162;28;20045;-78
2022/12/13 07:51:48;;;;;;;8.23;5.43;;;;;;;;;;5035121;28;20559;-77
2022/12/13 07:54:16;;;;;;;19.38;7.35;;;;;;;;;;5042435;28;20049;-76
2022/12/13 07:56:44;;;;;;;11.60;7.32;;;;;;;;;;5038709;28;20051;-78
2022/12/13 07:59:13;;;;;;;11.75;8.82;;;;;;;;;;5016940;28;20480;-76
2022/12/13 08:01:40;;;;;;;14.55;8.32;;;;;;;;;;5037390;28;20049;-77
2022/12/13 08:04:08;;;;;;;20.13;12.40;;;;;;;;;;5029793;28;20052;-77
2022/12/13 08:06:37;;;;;;;19.92;16.80;;;;;;;;;;5010670;28;20048;-75
2022/12/13 08:09:05;;;;;;;13.15;7.95;;;;;;;;;;5018849;28;20048;-76
2022/12/13 08:11:32;;;;;;;13.32;12.05;;;;;;;;;;5018586;28;20096;-76
2022/12/13 08:14:00;;;;;;;10.75;6.93;;;;;;;;;;5039168;28;20041;-77
2022/12/13 08:16:28;;;;;;;11.48;7.47;;;;;;;;;;5009288;28;20051;-76
2022/12/13 08:18:59;;;;;;;16.05;11.48;;;;;;;;;;5042789;28;20041;-77
2022/12/13 08:21:35;;;;;;;12.00;7.70;;;;;;;;;;5141330;23;20244;-85
2022/12/13 08:24:28;;;;;;;17.13;8.95;;;;;;;;;;5025806;28;20042;-85
2022/12/13 08:26:59;;;;;;;20.80;9.73;;;;;;;;;;5009546;28;20037;-85
2022/12/13 08:29:29;;;;;;;21.42;12.63;;;;;;;;;;5001355;28;20052;-85
2022/12/13 08:32:06;;;;;;;15.60;10.38;;;;;;;;;;5006403;28;20037;-85
2022/12/13 08:34:40;;;;;;;9.00;5.78;;;;;;;;;;5009527;28;20542;-85
2022/12/13 08:37:10;;;;;;;11.60;10.27;;;;;;;;;;5007241;28;20128;-85
2022/12/13 08:39:38;;;;;;;13.30;11.55;;;;;;;;;;5007587;28;20053;-86
2022/12/13 08:42:07;;;;;;;11.93;10.50;;;;;;;;;;5004890;28;20495;-85
2022/12/13 08:44:47;;;;;;;13.25;8.25;;;;;;;;;;5001678;28;20125;-85
2022/12/13 08:47:15;;;;;;;13.63;8.93;;;;;;;;;;5006172;28;20526;-86
2022/12/13 08:49:51;;;;;;;12.75;11.55;;;;;;;;;;5006706;28;20053;-85
2022/12/13 08:52:20;;;;;;;10.60;9.65;;;;;;;;;;5003984;28;20136;-85
2022/12/13 08:54:47;;;;;;;12.40;9.25;;;;;;;;;;5009186;28;20503;-86
2022/12/13 08:57:15;;;;;;;11.00;6.65;;;;;;;;;;5009687;28;20034;-85
2022/12/13 08:59:42;;;;;;;13.70;8.90;;;;;;;;;;5005589;28;20049;-86
2022/12/13 09:02:11;;;;;;;15.07;11.15;;;;;;;;;;5008616;28;20056;-85
2022/12/13 09:04:39;;;;;;;12.82;9.07;;;;;;;;;;5001810;28;20486;-86
2022/12/13 09:07:06;;;;;;;15.95;9.35;;;;;;;;;;5003933;28;20069;-87
2022/12/13 09:09:34;;;;;;;14.50;12.35;;;;;;;;;;4991976;28;20061;-85
2022/12/13 09:12:04;;;;;;;12.30;7.88;;;;;;;;;;4998454;28;20038;-85
2022/12/13 09:14:38;;;;;;;17.00;9.23;;;;;;;;;;4985048;28;20049;-86
2022/12/13 09:17:14;;;;;;;12.70;8.52;;;;;;;;;;4971378;28;20077;-85
2022/12/13 09:19:51;;;;;;;14.73;7.22;;;;;;;;;;5000916;28;20069;-85
2022/12/13 09:22:25;;;;;;;10.75;8.98;;;;;;;;;;4989345;28;20060;-86
2022/12/13 09:25:01;;;;;;;12.60;11.45;;;;;;;;;;4992211;28;20607;-86
2022/12/13 09:27:29;;;;;;;16.98;12.73;;;;;;;;;;5008305;28;20061;-85
2022/12/13 09:30:06;;;;;;;13.30;9.15;;;;;;;;;;5009328;28;20049;-86
2022/12/13 09:32:34;;;;;;;11.00;6.72;;;;;;;;;;5009567;28;20529;-87
2022/12/13 09:35:01;;;;;;;11.05;8.90;;;;;;;;;;5009406;28;20050;-86
2022/12/13 09:37:29;;;;;;;12.35;6.80;;;;;;;;;;5010187;28;20041;-86
2022/12/13 09:39:56;;;;;;;11.13;7.05;;;;;;;;;;4993088;28;20054;-86
2022/12/13 09:42:25;;;;;;;12.38;8.32;;;;;;;;;;5009675;28;20050;-86
2022/12/13 09:45:02;;;;;;;12.57;7.38;;;;;;;;;;5009547;28;20037;-87
2022/12/13 09:47:32;;;;;;;15.63;9.40;;;;;;;;;;5061881;23;20057;-75
2022/12/13 09:50:06;;;;;;;14.45;8.70;;;;;;;;;;5027923;28;20407;-74
2022/12/13 09:52:37;;;;;;;12.57;8.40;;;;;;;;;;5027976;28;20091;-74
2022/12/13 09:55:16;;;;;;;12.98;9.05;;;;;;;;;;5028780;28;20587;-74
2022/12/13 09:57:43;;;;;;;14.25;6.90;;;;;;;;;;4993965;28;20115;-75
2022/12/13 10:00:13;;;;;;;24.70;22.48;;;;;;;;;;5011481;28;20053;-75
2022/12/13 10:02:43;;;;;;;9.38;6.68;;;;;;;;;;5029594;28;20092;-74
2022/12/13 10:05:20;;;;;;;13.45;6.68;;;;;;;;;;5027807;28;20041;-74
2022/12/13 10:07:50;;;;;;;17.35;11.05;;;;;;;;;;5020099;28;20162;-74
2022/12/13 10:10:17;;;;;;;15.52;13.80;;;;;;;;;;5005693;28;20045;-74
2022/12/13 10:12:46;;;;;;;9.50;6.68;;;;;;;;;;5009702;28;20120;-74
2022/12/13 10:15:16;;;;;;;12.32;11.10;;;;;;;;;;5027064;28;20068;-73
2022/12/13 10:17:49;;;;;;;15.90;7.85;;;;;;;;;;5011247;28;20052;-72
2022/12/13 10:20:24;;;;;;;9.88;6.72;;;;;;;;;;5006125;28;20524;-74
2022/12/13 10:22:52;;;;;;;13.10;8.60;;;;;;;;;;5023813;28;20506;-74
2022/12/13 10:25:47;;;;;;;11.32;7.47;;;;;;;;;;5009686;28;20030;-75
2022/12/13 10:28:23;;;;;;;17.88;14.82;;;;;;;;;;5029560;28;20038;-74
2022/12/13 10:30:51;;;;;;;9.27;6.00;;;;;;;;;;5029373;28;20129;-73
2022/12/13 10:33:20;;;;;;;32.05;29.67;;;;;;;;;;5029459;28;20049;-74
2022/12/13 10:36:10;;;;;;;14.02;9.38;;;;;;;;;;5025712;28;20257;-72
2022/12/13 10:38:41;;;;;;;12.50;7.35;;;;;;;;;;5014598;28;20407;-73
2022/12/13 10:41:25;;;;;;;9.82;7.10;;;;;;;;;;5011701;28;20055;-74
2022/12/13 10:44:09;;;;;;;10.35;6.60;;;;;;;;;;4994074;28;20049;-74
2022/12/13 10:46:38;;;;;;;11.68;6.55;;;;;;;;;;4990496;28;20069;-74
2022/12/13 10:49:22;;;;;;;14.35;6.78;;;;;;;;;;5010841;28;20041;-74
2022/12/13 10:51:52;;;;;;;11.43;6.80;;;;;;;;;;5025232;28;20038;-75
2022/12/13 10:54:25;;;;;;;9.20;6.60;;;;;;;;;;5021311;28;20044;-74
2022/12/13 10:56:58;;;;;;;25.75;23.30;;;;;;;;;;5028422;28;20038;-74
2022/12/13 10:59:33;;;;;;;10.60;6.13;;;;;;;;;;4995833;28;20060;-74
2022/12/13 11:02:02;;;;;;;9.60;6.93;;;;;;;;;;5028906;28;20069;-73
2022/12/13 11:04:34;;;;;;;9.73;7.20;;;;;;;;;;5009125;28;20132;-74
2022/12/13 11:07:20;;;;;;;21.10;9.40;;;;;;;;;;5009728;28;20053;-73
2022/12/13 11:09:47;;;;;;;16.55;8.15;;;;;;;;;;5011228;28;20041;-74
2022/12/13 11:12:20;;;;;;;9.27;7.47;;;;;;;;;;4996242;28;20057;-74
2022/12/13 11:14:50;;;;;;;9.30;6.15;;;;;;;;;;5025764;28;20483;-74
2022/12/13 11:17:20;;;;;;;11.32;6.72;;;;;;;;;;5020621;28;20063;-74
2022/12/13 11:19:49;;;;;;;9.40;5.85;;;;;;;;;;5026393;28;20045;-74
2022/12/13 11:22:32;;;;;;;23.92;12.38;;;;;;;;;;5010897;28;20045;-74
2022/12/13 11:25:00;;;;;;;31.23;13.23;;;;;;;;;;5026394;28;20091;-74
2022/12/13 11:27:36;;;;;;;19.48;10.45;;;;;;;;;;5027682;28;20115;-74
2022/12/13 11:30:04;;;;;;;11.43;6.65;;;;;;;;;;5018880;28;20042;-73
2022/12/13 11:32:40;;;;;;;13.07;8.23;;;;;;;;;;5010620;28;20064;-74
2022/12/13 11:35:11;;;;;;;8.65;5.63;;;;;;;;;;4994289;28;20049;-74
2022/12/13 11:38:02;;;;;;;8.10;6.20;;;;;;;;;;5028771;28;20477;-73
2022/12/13 11:40:31;;;;;;;12.60;7.70;;;;;;;;;;5018964;28;20401;-72
2022/12/13 11:43:04;;;;;;;8.68;5.93;;;;;;;;;;5027959;28;20060;-71
2022/12/13 11:45:54;;;;;;;10.75;5.95;;;;;;;;;;4977636;28;20057;-73
2022/12/13 11:48:31;;;;;;;19.10;12.27;;;;;;;;;;4994357;28;20049;-73
2022/12/13 11:51:00;;;;;;;7.60;5.68;;;;;;;;;;5011230;28;20072;-72
2022/12/13 11:53:36;;;;;;;8.07;5.47;;;;;;;;;;5027976;28;20505;-70
2022/12/13 11:56:10;;;;;;;8.88;6.13;;;;;;;;;;5010862;28;20055;-72
2022/12/13 11:58:57;;;;;;;7.70;5.00;;;;;;;;;;5011421;28;20110;-73
2022/12/13 12:01:35;;;;;;;10.20;9.15;;;;;;;;;;5028568;28;20065;-71
2022/12/13 12:04:11;;;;;;;15.40;13.85;;;;;;;;;;5010289;28;20129;-72
2022/12/13 12:06:42;;;;;;;8.38;5.97;;;;;;;;;;5010029;28;20047;-72
2022/12/13 12:09:15;;;;;;;7.63;5.30;;;;;;;;;;5028380;28;20060;-72
2022/12/13 12:11:46;;;;;;;9.60;6.05;;;;;;;;;;5028044;28;20037;-72
2022/12/13 12:14:23;;;;;;;14.15;9.85;;;;;;;;;;5009947;28;20057;-71
2022/12/13 12:16:52;;;;;;;13.90;8.48;;;;;;;;;;5027733;28;20065;-72
2022/12/13 12:19:24;;;;;;;7.90;5.93;;;;;;;;;;5027628;28;20048;-72
2022/12/13 12:21:52;;;;;;;;;;;;;;;;;;5029081;28;20426;-72
2022/12/13 12:24:45;;;;;;;7.47;6.15;;;;;;;;;;5006036;28;20337;-72
2022/12/13 12:27:19;;;;;;;10.43;9.43;;;;;;;;;;5007938;28;20053;-71
2022/12/13 12:30:04;;;;;;;7.00;5.70;;;;;;;;;;5008556;28;20092;-72
2022/12/13 12:32:44;;;;;;;16.48;15.25;;;;;;;;;;4991311;28;20050;-72
2022/12/13 12:35:11;;;;;;;7.07;5.30;;;;;;;;;;4974320;28;20050;-72
2022/12/13 12:37:57;;;;;;;7.47;4.75;;;;;;;;;;4990335;28;20425;-72
2022/12/13 12:40:24;;;;;;;7.80;5.85;;;;;;;;;;5002058;28;20411;-72
2022/12/13 12:43:07;;;;;;;8.88;5.45;;;;;;;;;;4993603;28;20045;-72
2022/12/13 12:45:55;;;;;;;8.82;7.93;;;;;;;;;;5026116;28;20513;-72
2022/12/13 12:48:42;;;;;;;10.93;6.50;;;;;;;;;;5026307;28;20060;-72
2022/12/13 12:51:35;;;;;;;7.38;5.65;;;;;;;;;;5025733;28;20807;-72
2022/12/13 12:54:06;;;;;;;9.35;5.78;;;;;;;;;;4992346;28;20442;-72
2022/12/13 12:56:37;;;;;;;11.43;6.93;;;;;;;;;;4992625;28;20077;-71
2022/12/13 12:59:11;;;;;;;11.65;8.40;;;;;;;;;;5026356;28;20048;-72
2022/12/13 13:01:41;;;;;;;22.92;18.70;;;;;;;;;;5006142;28;20048;-72
2022/12/13 13:04:12;;;;;;;11.32;7.30;;;;;;;;;;5005528;28;20116;-73
2022/12/13 13:06:59;;;;;;;11.77;6.95;;;;;;;;;;5010177;28;20044;-71
2022/12/13 13:09:29;;;;;;;11.27;7.05;;;;;;;;;;5006884;28;20054;-72
2022/12/13 13:11:56;;;;;;;10.63;6.75;;;;;;;;;;5007312;28;20072;-73
2022/12/13 13:14:27;;;;;;;14.90;7.95;;;;;;;;;;5014744;28;20041;-72
2022/12/13 13:16:55;;;;;;;11.73;7.60;;;;;;;;;;5004051;28;20037;-73
2022/12/13 13:19:31;;;;;;;16.15;14.80;;;;;;;;;;5016602;28;20057;-72
2022/12/13 13:21:59;;;;;;;13.32;6.80;;;;;;;;;;5022485;28;20048;-73
2022/12/13 13:24:29;;;;;;;11.35;7.30;;;;;;;;;;4988774;28;20053;-73
2022/12/13 13:26:58;;;;;;;10.20;7.43;;;;;;;;;;5008266;28;20042;-74
2022/12/13 13:29:25;;;;;;;10.52;7.18;;;;;;;;;;5026426;28;20371;-73
2022/12/13 13:32:15;;;;;;;12.02;8.48;;;;;;;;;;5012285;28;20424;-72
2022/12/13 13:35:18;;;;;;;9.55;6.50;;;;;;;;;;5011269;28;20045;-72
2022/12/13 13:37:47;;;;;;;11.68;7.22;;;;;;;;;;5012622;28;20144;-71
2022/12/13 13:40:30;;;;;;;14.27;10.00;;;;;;;;;;5026475;28;20048;-71
2022/12/13 13:43:04;;;;;;;13.00;9.38;;;;;;;;;;5030210;28;20049;-72
2022/12/13 13:45:50;;;;;;;14.95;9.45;;;;;;;;;;5029063;28;20030;-72
2022/12/13 13:48:18;;;;;;;17.63;12.82;;;;;;;;;;5011338;28;20046;-72
2022/12/13 13:50:59;;;;;;;15.27;9.98;;;;;;;;;;5013173;28;20268;-71
2022/12/13 13:53:40;;;;;;;20.73;15.23;;;;;;;;;;5030121;28;20790;-72
2022/12/13 13:56:14;;;;;;;16.23;10.20;;;;;;;;;;5013002;28;20064;-72
2022/12/13 13:58:44;;;;;;;17.40;10.25;;;;;;;;;;5018772;28;20041;-73
2022/12/13 14:01:28;;;;;;;16.70;11.13;;;;;;;;;;5037383;28;20072;-73
2022/12/13 14:04:15;;;;;;;17.20;10.45;;;;;;;;;;5005454;28;20539;-72
2022/12/13 14:06:43;;;;;;;18.65;9.07;;;;;;;;;;5006922;28;20068;-73
2022/12/13 14:09:30;;;;;;;15.60;9.05;;;;;;;;;;5040064;28;20109;-73
2022/12/13 14:12:00;;;;;;;15.30;8.30;;;;;;;;;;5001061;28;20076;-73
2022/12/13 14:14:37;;;;;;;20.42;18.50;;;;;;;;;;5021413;28;20112;-73
2022/12/13 14:17:05;;;;;;;13.00;8.10;;;;;;;;;;5020925;28;20050;-72
2022/12/13 14:19:32;;;;;;;16.98;9.77;;;;;;;;;;5020628;28;20052;-73
2022/12/13 14:22:15;;;;;;;13.52;10.05;;;;;;;;;;5049075;22;20500;-74
2022/12/13 14:25:01;;;;;;;16.00;10.82;;;;;;;;;;5042036;28;20048;-75
2022/12/13 14:27:34;;;;;;;15.68;9.20;;;;;;;;;;5023387;28;20556;-75
2022/12/13 14:30:02;;;;;;;15.30;10.82;;;;;;;;;;5015665;28;20496;-75
2022/12/13 14:32:49;;;;;;;21.00;11.45;;;;;;;;;;5031440;28;20060;-75
2022/12/13 14:35:21;;;;;;;16.65;10.02;;;;;;;;;;5044610;28;20075;-75
2022/12/13 14:38:00;;;;;;;17.55;10.82;;;;;;;;;;5031717;28;20049;-76
2022/12/13 14:40:32;;;;;;;15.77;8.98;;;;;;;;;;5025245;28;20033;-76
2022/12/13 14:43:00;;;;;;;21.88;11.80;;;;;;;;;;4996216;28;20464;-75
2022/12/13 14:45:32;;;;;;;15.65;9.60;;;;;;;;;;5029977;28;20052;-75
2022/12/13 14:48:01;;;;;;;20.35;11.45;;;;;;;;;;5036349;28;20033;-75
2022/12/13 14:50:31;;;;;;;17.08;11.80;;;;;;;;;;5037716;28;20037;-76
2022/12/13 14:52:59;;;;;;;22.02;13.50;;;;;;;;;;5048475;28;20124;-75
2022/12/13 14:55:29;;;;;;;22.20;13.02;;;;;;;;;;5030888;28;20060;-75
2022/12/13 14:57:59;;;;;;;15.00;10.63;;;;;;;;;;5047798;28;20056;-76
2022/12/13 15:00:28;;;;;;;20.17;11.05;;;;;;;;;;5048529;28;20481;-75
2022/12/13 15:02:58;;;;;;;17.48;11.27;;;;;;;;;;4997358;28;20049;-75
2022/12/13 15:05:42;;;;;;;15.90;10.85;;;;;;;;;;5010130;28;20065;-76